createdAt,value
2023-05-02T09:40:10.691Z,4.82
2023-05-02T09:42:38.945Z,4.78
2023-05-02T09:45:07.461Z,4.45
2023-05-02T09:47:36.672Z,3.58
2023-05-02T09:50:06.368Z,3.95
2023-05-02T09:52:34.168Z,3.90
2023-05-02T09:58:33.242Z,4.63
2023-05-02T10:01:00.992Z,3.92
2023-05-02T10:03:29.851Z,4.10
2023-05-02T10:05:58.295Z,3.63
2023-05-02T10:08:28.628Z,3.65
2023-05-02T10:10:59.006Z,3.22
2023-05-02T10:13:32.166Z,3.97
2023-05-02T10:16:01.945Z,3.08
2023-05-02T10:18:42.099Z,3.40
2023-05-02T10:21:12.619Z,3.30
2023-05-02T10:23:44.277Z,3.83
2023-05-02T10:26:16.823Z,3.72
2023-05-02T10:28:45.818Z,3.50
2023-05-02T10:33:42.109Z,3.72
2023-05-02T10:36:13.237Z,3.53
2023-05-02T10:38:42.280Z,3.08
2023-05-02T10:41:23.059Z,3.10
2023-05-02T10:43:50.952Z,3.10
2023-05-02T10:46:34.188Z,3.10
2023-05-02T10:49:07.458Z,2.58
2023-05-02T10:51:36.819Z,2.70
2023-05-02T10:54:20.179Z,3.33
2023-05-02T10:57:01.831Z,2.70
2023-05-02T10:59:31.769Z,2.75
2023-05-02T11:02:00.094Z,2.75
2023-05-02T11:05:02.179Z,2.67
2023-05-02T11:07:33.219Z,3.08
2023-05-02T11:10:22.281Z,2.95
2023-05-02T11:12:52.151Z,2.55
2023-05-02T11:15:29.052Z,2.92
2023-05-02T11:18:03.089Z,2.83
2023-05-02T11:20:31.997Z,2.80
2023-05-02T11:25:55.927Z,2.42
2023-05-02T11:28:48.436Z,3.15
2023-05-02T11:31:27.066Z,2.80
2023-05-02T11:34:03.082Z,2.35
2023-05-02T11:36:35.893Z,2.53
2023-05-02T11:39:05.987Z,2.08
2023-05-02T11:41:40.912Z,2.42
2023-05-02T11:44:08.672Z,2.25
2023-05-02T11:46:40.696Z,2.20
2023-05-02T11:49:09.740Z,2.80
2023-05-02T11:51:38.223Z,2.47
2023-05-02T11:54:08.020Z,2.25
2023-05-02T11:56:35.939Z,1.95
2023-05-02T11:59:04.348Z,2.08
2023-05-02T12:01:32.085Z,3.20
2023-05-02T12:04:08.011Z,2.05
2023-05-02T12:06:36.141Z,2.13
2023-05-02T12:09:16.205Z,1.90
2023-05-02T12:11:44.059Z,1.60
2023-05-02T12:14:11.652Z,1.73
2023-05-02T12:16:39.366Z,2.00
2023-05-02T12:19:07.353Z,1.57
2023-05-02T12:21:35.193Z,1.57
2023-05-02T12:24:03.514Z,2.03
2023-05-02T12:26:32.815Z,1.70
2023-05-02T12:29:02.759Z,2.08
2023-05-02T12:31:32.257Z,1.50
2023-05-02T12:34:01.285Z,2.13
2023-05-02T12:36:29.500Z,1.70
2023-05-02T12:39:02.715Z,2.03
2023-05-02T12:41:38.639Z,1.70
2023-05-02T12:44:07.792Z,1.60
2023-05-02T12:46:36.550Z,2.33
2023-05-02T12:49:12.381Z,1.65
2023-05-02T12:51:41.274Z,1.15
2023-05-02T12:56:40.807Z,1.55
2023-05-02T12:59:09.532Z,2.05
2023-05-02T13:01:37.297Z,1.92
2023-05-02T13:04:05.761Z,1.77
2023-05-02T13:06:33.899Z,2.05
2023-05-02T13:09:02.080Z,2.50
2023-05-02T13:11:29.696Z,2.20
2023-05-02T13:13:57.385Z,1.80
2023-05-02T13:16:26.056Z,1.90
2023-05-02T13:21:21.427Z,1.70
2023-05-02T13:23:50.841Z,1.93
2023-05-02T13:26:18.434Z,1.92
2023-05-02T13:28:46.032Z,2.28
2023-05-02T13:31:13.878Z,1.90
2023-05-02T13:33:41.601Z,1.60
2023-05-02T13:36:09.269Z,2.15
2023-05-02T13:38:36.928Z,1.35
2023-05-02T13:41:04.666Z,2.00
2023-05-02T13:43:32.349Z,1.52
2023-05-02T13:46:00.434Z,1.58
2023-05-02T13:48:28.231Z,1.50
2023-05-02T13:50:56.014Z,1.77
2023-05-02T13:53:23.656Z,2.17
2023-05-02T13:55:51.393Z,2.03
2023-05-02T13:58:18.986Z,2.10
2023-05-02T14:00:47.328Z,1.77
2023-05-02T14:03:15.148Z,1.70
2023-05-02T14:05:43.902Z,1.70
2023-05-02T14:10:39.461Z,1.90
2023-05-02T14:13:07.083Z,1.88
2023-05-02T14:15:34.844Z,1.88
2023-05-02T14:18:02.582Z,2.57
2023-05-02T14:20:30.420Z,2.13
2023-05-02T14:22:58.107Z,1.97
2023-05-02T14:25:26.132Z,2.33
2023-05-02T14:27:53.844Z,2.65
2023-05-02T14:30:21.586Z,1.85
2023-05-02T14:32:49.331Z,1.77
2023-05-02T14:35:16.935Z,1.90
2023-05-02T14:37:45.768Z,1.77
2023-05-02T14:40:16.720Z,1.83
2023-05-02T14:42:44.348Z,2.20
2023-05-02T14:45:12.565Z,2.30
2023-05-02T14:47:40.463Z,2.20
2023-05-02T14:50:08.513Z,1.70
2023-05-02T14:52:36.258Z,2.00
2023-05-02T14:55:04.420Z,1.80
2023-05-02T14:57:32.668Z,2.53
2023-05-02T15:00:00.814Z,2.42
2023-05-02T15:02:28.893Z,2.95
2023-05-02T15:04:56.797Z,2.00
2023-05-02T15:07:24.590Z,2.80
2023-05-02T15:09:52.332Z,2.17
2023-05-02T15:12:19.857Z,2.30
2023-05-02T15:14:47.477Z,2.03
2023-05-02T15:17:15.637Z,2.40
2023-05-02T15:19:43.265Z,2.30
2023-05-02T15:22:11.157Z,2.08
2023-05-02T15:24:39.114Z,1.80
2023-05-02T15:27:06.731Z,1.80
2023-05-02T15:29:34.456Z,2.42
2023-05-02T15:32:02.141Z,2.70
2023-05-02T15:34:29.815Z,2.15
2023-05-02T15:37:00.941Z,2.15
2023-05-02T15:39:28.592Z,2.20
2023-05-02T15:41:56.979Z,2.42
2023-05-02T15:44:26.214Z,2.45
2023-05-02T15:46:55.950Z,2.20
2023-05-02T15:49:25.172Z,2.38
2023-05-02T15:51:52.935Z,2.80
2023-05-02T15:54:20.506Z,2.60
2023-05-02T15:56:48.076Z,2.72
2023-05-02T15:59:15.852Z,2.53
2023-05-02T16:01:43.459Z,2.90
2023-05-02T16:04:11.343Z,2.13
2023-05-02T16:06:41.574Z,2.55
2023-05-02T16:09:10.169Z,3.17
2023-05-02T16:11:37.927Z,2.50
2023-05-02T16:14:05.710Z,2.63
2023-05-02T16:16:34.153Z,3.38
2023-05-02T16:19:02.214Z,2.72
2023-05-02T16:21:29.830Z,3.83
2023-05-02T16:23:57.601Z,2.80
2023-05-02T16:26:26.018Z,3.00
2023-05-02T16:28:54.664Z,2.85
2023-05-02T16:31:22.295Z,2.83
2023-05-02T16:33:51.003Z,3.28
2023-05-02T16:38:46.417Z,2.87
2023-05-02T16:41:14.214Z,2.85
2023-05-02T16:43:41.935Z,2.77
2023-05-02T16:46:09.858Z,3.33
2023-05-02T16:48:37.514Z,2.17
2023-05-02T16:51:05.459Z,2.58
2023-05-02T16:53:33.209Z,2.92
2023-05-02T16:56:01.092Z,3.10
2023-05-02T16:58:29.318Z,3.63
2023-05-02T17:00:58.990Z,3.00
2023-05-02T17:03:26.963Z,2.90
2023-05-02T17:05:57.909Z,3.47
2023-05-02T17:08:25.630Z,3.20
2023-05-02T17:10:53.578Z,2.65
2023-05-02T17:13:21.174Z,3.03
2023-05-02T17:15:48.855Z,3.45
2023-05-02T17:18:16.607Z,2.78
2023-05-02T17:20:46.092Z,3.03
2023-05-02T17:23:14.665Z,2.78
2023-05-02T17:25:42.911Z,3.00
2023-05-02T17:28:10.800Z,2.78
2023-05-02T17:30:38.531Z,3.20
2023-05-02T17:33:06.340Z,3.00
2023-05-02T17:35:34.096Z,3.27
2023-05-02T17:38:01.752Z,3.65
2023-05-02T17:40:29.895Z,3.88
2023-05-02T17:42:59.005Z,3.35
2023-05-02T17:45:28.554Z,3.40
2023-05-02T17:47:56.569Z,3.45
2023-05-02T17:50:24.324Z,3.70
2023-05-02T17:52:52.088Z,3.45
2023-05-02T17:55:19.909Z,3.08
2023-05-02T17:57:48.542Z,3.00
2023-05-02T18:00:16.804Z,3.10
2023-05-02T18:02:44.727Z,3.33
2023-05-02T18:05:12.723Z,3.50
2023-05-02T18:07:40.320Z,3.00
2023-05-02T18:10:08.467Z,3.47
2023-05-02T18:12:36.347Z,3.50
2023-05-02T18:15:05.880Z,3.47
2023-05-02T18:17:33.995Z,3.20
2023-05-02T18:20:04.236Z,2.85
2023-05-02T18:22:33.807Z,3.33
2023-05-02T18:25:01.761Z,2.70
2023-05-02T18:27:29.661Z,3.58
2023-05-02T18:29:57.591Z,2.67
2023-05-02T18:32:26.259Z,3.15
2023-05-02T18:34:53.969Z,2.40
2023-05-02T18:37:22.956Z,2.78
2023-05-02T18:42:18.110Z,2.90
2023-05-02T18:44:45.899Z,2.28
2023-05-02T18:47:17.829Z,2.63
